Terminal Aerodrome Forecast
Issued by NWS Oklahoma City, OK

Home | Current Version | Previous Version | Text Only | Print | Product List | Glossary On
Versions: 1 2 3 4 5 6 7 8 9 10 11 12 13 14 15 16 17 18 19 20 21 22 23 24 25 26 27 28 29
000
FTUS44 KOUN 071141
TAFOUN
TAF
KOUN 071141Z 0712/0812 VRB04KT P6SM BKN035 OVC150
      TEMPO 0714/0718 5SM -SHRA SCT006 OVC020
     FM071800 03010KT 5SM -SHRA SCT010 OVC025
      TEMPO 0720/0724 2SM -TSRA BKN010CB OVC020
     FM080200 35012KT P6SM OVC010
      TEMPO 0802/0806 4SM -TSRA OVC010CB=

USA.gov is the U.S. government's official web portal to all federal, state and local government web resources and services.